createdAt,value
2019-05-18T00:01:19.014Z,99.90
2019-05-18T00:03:21.839Z,99.90
2019-05-18T00:05:25.424Z,99.90
2019-05-18T00:07:28.233Z,99.90
2019-05-18T00:09:31.812Z,99.90
2019-05-18T00:11:34.694Z,99.90
2019-05-18T00:13:38.293Z,99.90
2019-05-18T00:15:41.085Z,99.90
2019-05-18T00:17:44.821Z,99.90
2019-05-18T00:19:48.392Z,99.90
2019-05-18T00:21:51.177Z,99.90
2019-05-18T00:23:54.793Z,99.90
2019-05-18T00:25:57.621Z,99.90
2019-05-18T00:28:01.200Z,99.90
2019-05-18T00:30:07.662Z,99.90
2019-05-18T00:32:11.277Z,99.90
2019-05-18T00:34:14.088Z,99.90
2019-05-18T00:36:17.741Z,99.90
2019-05-18T00:38:20.568Z,99.90
2019-05-18T00:40:24.152Z,99.90
2019-05-18T00:42:29.727Z,99.90
2019-05-18T00:44:33.330Z,99.90
2019-05-18T00:46:36.124Z,99.90
2019-05-18T00:48:39.703Z,99.90
2019-05-18T00:50:42.893Z,99.90
2019-05-18T00:52:46.518Z,99.90
2019-05-18T00:54:49.387Z,99.90
2019-05-18T00:56:53.029Z,99.90
2019-05-18T00:58:56.612Z,99.90
2019-05-18T01:00:59.465Z,99.90
2019-05-18T01:03:03.045Z,99.90
2019-05-18T01:05:06.005Z,99.90
2019-05-18T01:07:09.597Z,99.90
2019-05-18T01:09:12.384Z,99.90
2019-05-18T01:11:16.029Z,99.90
2019-05-18T01:13:18.884Z,99.90
2019-05-18T01:15:22.693Z,99.90
2019-05-18T01:17:26.409Z,99.90
2019-05-18T01:19:30.011Z,99.90
2019-05-18T01:21:32.798Z,99.90
2019-05-18T01:23:36.380Z,99.90
2019-05-18T01:25:39.193Z,99.90
2019-05-18T01:27:42.764Z,99.90
2019-05-18T01:29:45.607Z,99.90
2019-05-18T01:31:49.168Z,99.90
2019-05-18T01:33:51.994Z,99.90
2019-05-18T01:35:55.582Z,99.90
2019-05-18T01:37:58.390Z,99.90
2019-05-18T01:40:02.045Z,99.90
2019-05-18T01:42:05.636Z,99.90
2019-05-18T01:44:08.495Z,99.90
2019-05-18T01:46:12.144Z,99.90
2019-05-18T01:48:15.760Z,99.90
2019-05-18T01:50:18.569Z,99.90
2019-05-18T01:52:22.142Z,99.90
2019-05-18T01:54:24.943Z,99.90
2019-05-18T01:56:28.513Z,99.90
2019-05-18T01:58:31.306Z,99.90
2019-05-18T02:00:34.960Z,99.90
2019-05-18T02:02:38.630Z,99.90
2019-05-18T02:04:42.237Z,99.90
2019-05-18T02:06:45.097Z,99.90
2019-05-18T02:08:48.695Z,99.90
2019-05-18T02:10:51.478Z,99.90
2019-05-18T02:12:55.144Z,99.90
2019-05-18T02:14:58.738Z,99.90
2019-05-18T02:17:01.574Z,99.90
2019-05-18T02:19:05.248Z,99.90
2019-05-18T02:21:08.826Z,99.90
2019-05-18T02:23:11.622Z,99.90
2019-05-18T02:25:15.957Z,99.90
2019-05-18T02:27:19.533Z,99.90
2019-05-18T02:29:22.339Z,99.90
2019-05-18T02:31:25.918Z,99.90
2019-05-18T02:33:28.705Z,99.90
2019-05-18T02:35:32.391Z,99.90
2019-05-18T02:37:35.951Z,99.90
2019-05-18T02:39:38.810Z,99.90
2019-05-18T02:41:42.439Z,99.90
2019-05-18T02:43:45.293Z,99.90
2019-05-18T02:45:48.908Z,99.90
2019-05-18T02:47:51.688Z,99.90
2019-05-18T02:49:55.352Z,99.90
2019-05-18T02:51:58.926Z,99.90
2019-05-18T02:54:01.713Z,99.90
2019-05-18T02:56:05.426Z,99.90
2019-05-18T02:58:09.025Z,99.90
2019-05-18T03:00:12.103Z,99.90
2019-05-18T03:02:15.693Z,99.90
2019-05-18T03:04:18.570Z,99.90
2019-05-18T03:06:22.326Z,99.90
2019-05-18T03:08:26.060Z,99.90
2019-05-18T03:10:30.271Z,99.90
2019-05-18T03:12:34.013Z,99.90
2019-05-18T03:14:37.634Z,99.90
2019-05-18T03:16:40.440Z,99.90
2019-05-18T03:18:44.077Z,99.90
2019-05-18T03:20:47.647Z,99.90
2019-05-18T03:22:50.468Z,99.90
2019-05-18T03:24:54.052Z,99.90
2019-05-18T03:26:56.872Z,99.90
2019-05-18T03:29:00.453Z,99.90
2019-05-18T03:31:03.248Z,99.90
2019-05-18T03:33:06.930Z,99.90
2019-05-18T03:35:10.672Z,99.90
2019-05-18T03:37:14.269Z,99.90
2019-05-18T03:39:17.052Z,99.90
2019-05-18T03:41:20.618Z,99.90
2019-05-18T03:43:23.436Z,99.90
2019-05-18T03:45:27.095Z,99.90
2019-05-18T03:47:30.651Z,99.90
2019-05-18T03:49:33.472Z,99.90
2019-05-18T03:51:37.134Z,99.90
2019-05-18T03:53:40.759Z,99.90
2019-05-18T03:55:43.549Z,99.90
2019-05-18T03:57:47.144Z,99.90
2019-05-18T03:59:49.941Z,99.90
2019-05-18T04:01:53.511Z,99.90
2019-05-18T04:03:56.298Z,99.90
2019-05-18T04:05:59.911Z,99.90
2019-05-18T04:08:02.693Z,99.90
2019-05-18T04:10:07.249Z,99.90
2019-05-18T04:12:10.849Z,99.90
2019-05-18T04:14:13.637Z,99.90
2019-05-18T04:16:17.288Z,99.90
2019-05-18T04:18:20.893Z,99.90
2019-05-18T04:20:23.712Z,99.90
2019-05-18T04:22:27.329Z,99.90
2019-05-18T04:24:30.119Z,99.90
2019-05-18T04:26:33.735Z,99.90
2019-05-18T04:28:36.522Z,99.90
2019-05-18T04:30:40.151Z,99.90
2019-05-18T04:32:43.997Z,99.90
2019-05-18T04:34:47.647Z,99.90
2019-05-18T04:36:51.363Z,99.90
2019-05-18T04:38:54.930Z,99.90
2019-05-18T04:40:57.727Z,99.90
2019-05-18T04:43:01.338Z,99.90
2019-05-18T04:45:05.101Z,99.90
2019-05-18T04:47:08.687Z,99.90
2019-05-18T04:49:11.486Z,99.90
2019-05-18T04:51:14.290Z,99.90
2019-05-18T04:53:17.100Z,99.90
2019-05-18T04:55:19.922Z,99.90
2019-05-18T04:57:22.749Z,99.90
2019-05-18T04:59:25.537Z,99.90
2019-05-18T05:01:28.377Z,99.90
2019-05-18T05:03:31.170Z,99.90
2019-05-18T05:05:34.006Z,99.90
2019-05-18T05:07:36.805Z,99.90
2019-05-18T05:09:39.592Z,99.90
2019-05-18T05:11:42.416Z,99.90
2019-05-18T05:13:45.264Z,99.90
2019-05-18T05:15:48.061Z,99.90
2019-05-18T05:17:50.882Z,99.90
2019-05-18T05:19:53.699Z,99.90
2019-05-18T05:21:56.496Z,99.90
2019-05-18T05:23:59.334Z,99.90
2019-05-18T05:26:02.191Z,99.90
2019-05-18T05:28:04.994Z,99.90
2019-05-18T05:30:07.976Z,99.90
2019-05-18T05:32:10.776Z,99.90
2019-05-18T05:34:13.573Z,99.90
2019-05-18T05:36:16.364Z,99.90
2019-05-18T05:38:19.157Z,99.90
2019-05-18T05:40:21.977Z,99.90
2019-05-18T05:42:24.772Z,99.90
2019-05-18T05:44:27.592Z,99.90
2019-05-18T05:46:30.405Z,99.90
2019-05-18T05:48:33.265Z,99.90
2019-05-18T05:50:36.763Z,99.90
2019-05-18T05:52:39.891Z,99.90
2019-05-18T05:54:42.828Z,99.90
2019-05-18T05:56:45.648Z,99.90
2019-05-18T05:58:48.472Z,99.90
2019-05-18T06:00:51.284Z,99.90
2019-05-18T06:02:54.084Z,99.90
2019-05-18T06:04:56.878Z,99.90
2019-05-18T06:06:59.693Z,99.90
2019-05-18T06:09:02.656Z,99.90
2019-05-18T06:11:05.550Z,99.90
2019-05-18T06:13:08.348Z,99.90
2019-05-18T06:15:11.210Z,99.90
2019-05-18T06:17:14.020Z,99.90
2019-05-18T06:19:16.829Z,99.90
2019-05-18T06:21:19.692Z,99.90
2019-05-18T06:23:22.513Z,99.90
2019-05-18T06:25:25.327Z,99.90
2019-05-18T06:27:28.105Z,99.90
2019-05-18T06:29:30.933Z,99.90
2019-05-18T06:31:33.756Z,99.90
2019-05-18T06:33:36.577Z,99.90
2019-05-18T06:35:39.389Z,99.90
2019-05-18T06:37:42.203Z,99.90
2019-05-18T06:39:45.019Z,99.90
2019-05-18T06:41:47.869Z,99.90
2019-05-18T06:43:50.678Z,99.90
2019-05-18T06:45:53.469Z,99.90
2019-05-18T06:47:56.298Z,99.90
2019-05-18T06:49:59.093Z,99.90
2019-05-18T06:52:02.154Z,99.90
2019-05-18T06:54:05.026Z,99.90
2019-05-18T06:56:08.201Z,99.90
2019-05-18T06:58:11.007Z,99.90
2019-05-18T07:00:15.337Z,99.90
2019-05-18T07:02:18.159Z,99.90
2019-05-18T07:04:20.953Z,99.90
2019-05-18T07:06:23.741Z,99.90
2019-05-18T07:08:26.528Z,99.90
2019-05-18T07:10:29.321Z,99.90
2019-05-18T07:12:32.222Z,99.90
2019-05-18T07:14:35.101Z,99.90
2019-05-18T07:16:37.901Z,99.90
2019-05-18T07:18:40.762Z,99.90
2019-05-18T07:20:43.588Z,99.90
2019-05-18T07:22:46.445Z,99.90
2019-05-18T07:24:49.265Z,99.90
2019-05-18T07:26:52.082Z,99.90
2019-05-18T07:28:54.878Z,99.90
2019-05-18T07:30:57.683Z,99.90
2019-05-18T07:33:00.481Z,99.90
2019-05-18T07:35:04.376Z,99.90
2019-05-18T07:37:07.165Z,99.90
2019-05-18T07:39:09.998Z,99.90
2019-05-18T07:41:12.866Z,99.90
2019-05-18T07:43:15.682Z,99.90
2019-05-18T07:45:18.564Z,99.90
2019-05-18T07:47:21.365Z,99.90
2019-05-18T07:49:24.223Z,99.90
2019-05-18T07:51:36.529Z,99.90
2019-05-18T07:53:31.521Z,99.90
2019-05-18T07:55:34.475Z,99.90
2019-05-18T07:57:37.376Z,99.90
2019-05-18T07:59:40.209Z,99.90
2019-05-18T08:01:42.993Z,99.90
2019-05-18T08:03:45.829Z,99.90
2019-05-18T08:05:49.519Z,99.90
2019-05-18T08:07:52.312Z,99.90
2019-05-18T08:09:55.100Z,99.90
2019-05-18T08:11:57.954Z,99.90
2019-05-18T08:14:00.944Z,99.90
2019-05-18T08:16:03.736Z,99.90
2019-05-18T08:18:06.653Z,99.90
2019-05-18T08:20:09.508Z,99.90
2019-05-18T08:22:12.372Z,99.90
2019-05-18T08:24:15.298Z,99.90
2019-05-18T08:26:18.036Z,99.90
2019-05-18T08:28:20.921Z,99.90
2019-05-18T08:30:23.785Z,99.90
2019-05-18T08:32:26.602Z,99.90
2019-05-18T08:34:29.392Z,99.90
2019-05-18T08:36:32.213Z,99.90
2019-05-18T08:38:35.066Z,99.90
2019-05-18T08:40:37.876Z,99.90
2019-05-18T08:42:40.659Z,99.90
2019-05-18T08:44:43.476Z,99.90
2019-05-18T08:46:46.276Z,99.90
2019-05-18T08:48:49.165Z,99.90
2019-05-18T08:50:51.993Z,99.90
2019-05-18T08:52:54.807Z,99.90
2019-05-18T08:54:57.668Z,99.90
2019-05-18T08:57:00.478Z,99.90
2019-05-18T08:59:04.228Z,99.90
2019-05-18T09:01:07.041Z,99.90
2019-05-18T09:03:09.942Z,99.90
2019-05-18T09:05:12.949Z,99.90
2019-05-18T09:07:15.753Z,99.90
2019-05-18T09:09:18.633Z,99.90
2019-05-18T09:11:21.490Z,99.90
2019-05-18T09:13:24.268Z,99.90
2019-05-18T09:15:27.112Z,99.90
2019-05-18T09:17:29.986Z,99.90
2019-05-18T09:19:32.796Z,99.90
2019-05-18T09:21:35.608Z,99.90
2019-05-18T09:23:38.542Z,99.90
2019-05-18T09:25:41.454Z,99.90
2019-05-18T09:27:44.251Z,99.90
2019-05-18T09:29:47.032Z,99.90
2019-05-18T09:31:49.961Z,99.90
2019-05-18T09:33:52.795Z,99.90
2019-05-18T09:35:55.624Z,99.90
2019-05-18T09:37:58.424Z,99.90
2019-05-18T09:40:01.281Z,99.90
2019-05-18T09:42:04.133Z,99.90
2019-05-18T09:44:06.911Z,99.90
2019-05-18T09:46:09.869Z,99.90
2019-05-18T09:48:12.768Z,99.90
2019-05-18T09:50:15.707Z,99.90
2019-05-18T09:52:18.496Z,99.90
2019-05-18T09:54:21.352Z,99.90
2019-05-18T09:56:24.195Z,99.90
2019-05-18T09:58:26.993Z,99.90
2019-05-18T10:00:37.925Z,99.90
2019-05-18T10:02:34.429Z,99.90
2019-05-18T10:04:37.666Z,99.90
2019-05-18T10:06:40.476Z,99.30
2019-05-18T10:08:43.355Z,99.60
2019-05-18T10:10:46.177Z,99.60
2019-05-18T10:12:48.988Z,99.90
2019-05-18T10:14:51.880Z,99.50
2019-05-18T10:16:54.707Z,99.30
2019-05-18T10:18:57.468Z,99.20
2019-05-18T10:21:00.323Z,99.90
2019-05-18T10:23:12.410Z,99.70
2019-05-18T10:25:07.973Z,99.50
2019-05-18T10:27:10.756Z,98.60
2019-05-18T10:29:13.544Z,98.10
2019-05-18T10:31:16.370Z,99.00
2019-05-18T10:33:19.164Z,97.90
2019-05-18T10:35:21.957Z,98.40
2019-05-18T10:37:24.794Z,99.10
2019-05-18T10:39:27.677Z,99.50
2019-05-18T10:41:30.517Z,99.30
2019-05-18T10:43:33.353Z,98.00
2019-05-18T10:45:36.130Z,97.30
2019-05-18T10:47:38.947Z,97.80
2019-05-18T10:49:41.761Z,97.50
2019-05-18T10:51:44.566Z,97.30
2019-05-18T10:53:47.361Z,96.60
2019-05-18T10:55:50.149Z,96.10
2019-05-18T10:57:53.048Z,96.10
2019-05-18T10:59:55.834Z,95.90
2019-05-18T11:01:58.657Z,95.00
2019-05-18T11:04:01.525Z,95.70
2019-05-18T11:06:04.388Z,94.80
2019-05-18T11:08:07.208Z,94.50
2019-05-18T11:10:10.059Z,95.30
2019-05-18T11:12:12.955Z,95.00
2019-05-18T11:14:18.750Z,94.80
2019-05-18T11:16:20.297Z,95.50
2019-05-18T11:18:23.194Z,94.80
2019-05-18T11:20:26.098Z,94.70
2019-05-18T11:22:28.876Z,94.80
2019-05-18T11:24:31.710Z,94.60
2019-05-18T11:26:34.614Z,94.60
2019-05-18T11:28:37.407Z,93.30
2019-05-18T11:30:40.304Z,93.00
2019-05-18T11:32:43.091Z,92.20
2019-05-18T11:34:45.902Z,92.00
2019-05-18T11:36:48.682Z,93.20
2019-05-18T11:38:51.541Z,93.20
2019-05-18T11:40:54.382Z,93.60
2019-05-18T11:42:57.173Z,93.80
2019-05-18T11:45:00.080Z,92.10
2019-05-18T11:47:02.865Z,92.10
2019-05-18T11:49:05.637Z,91.20
2019-05-18T11:51:08.503Z,91.90
2019-05-18T11:53:11.565Z,91.40
2019-05-18T11:55:14.612Z,92.60
2019-05-18T11:57:17.389Z,91.60
2019-05-18T11:59:20.190Z,91.30
2019-05-18T12:01:22.992Z,91.50
2019-05-18T12:03:25.814Z,91.10
2019-05-18T12:05:28.637Z,90.60
2019-05-18T12:07:31.456Z,91.60
2019-05-18T12:09:34.317Z,90.30
2019-05-18T12:11:37.141Z,91.10
2019-05-18T12:13:39.947Z,91.40
2019-05-18T12:15:42.744Z,91.00
2019-05-18T12:17:45.541Z,91.90
2019-05-18T12:19:48.334Z,91.80
2019-05-18T12:21:51.229Z,91.80
2019-05-18T12:23:54.093Z,91.90
2019-05-18T12:25:56.979Z,91.50
2019-05-18T12:27:59.925Z,90.90
2019-05-18T12:30:02.841Z,91.10
2019-05-18T12:32:05.715Z,90.90
2019-05-18T12:34:08.505Z,90.10
2019-05-18T12:36:11.410Z,90.10
2019-05-18T12:38:14.138Z,90.00
2019-05-18T12:40:18.477Z,90.40
2019-05-18T12:42:21.677Z,91.20
2019-05-18T12:44:24.487Z,91.30
2019-05-18T12:46:27.388Z,90.80
2019-05-18T12:48:30.264Z,89.50
2019-05-18T12:50:33.061Z,90.50
2019-05-18T12:52:35.980Z,90.40
2019-05-18T12:54:46.533Z,90.10
2019-05-18T12:56:43.602Z,91.10
2019-05-18T12:58:46.511Z,90.60
2019-05-18T13:00:49.247Z,91.20
2019-05-18T13:02:52.125Z,90.30
2019-05-18T13:04:54.949Z,90.60
2019-05-18T13:06:57.729Z,91.20
2019-05-18T13:09:00.553Z,90.10
2019-05-18T13:11:03.535Z,88.80
2019-05-18T13:13:06.531Z,90.10
2019-05-18T13:15:10.126Z,89.30
2019-05-18T13:17:12.910Z,89.20
2019-05-18T13:19:15.729Z,88.80
2019-05-18T13:21:18.605Z,90.20
2019-05-18T13:23:21.470Z,89.30
2019-05-18T13:25:24.272Z,90.10
2019-05-18T13:27:38.738Z,88.10
2019-05-18T13:29:31.566Z,87.30
2019-05-18T13:31:34.453Z,87.40
2019-05-18T13:33:37.249Z,87.10
2019-05-18T13:35:40.050Z,86.60
2019-05-18T13:37:42.829Z,87.50
2019-05-18T13:39:45.634Z,88.00
2019-05-18T13:41:48.469Z,88.80
2019-05-18T13:43:51.317Z,86.60
2019-05-18T13:45:54.301Z,87.40
2019-05-18T13:47:57.077Z,88.30
2019-05-18T13:49:59.908Z,87.70
2019-05-18T13:52:02.706Z,85.40
2019-05-18T13:54:05.531Z,85.40
2019-05-18T13:56:08.394Z,87.50
2019-05-18T13:58:11.227Z,85.70
2019-05-18T14:00:14.414Z,85.60
2019-05-18T14:02:17.450Z,86.00
2019-05-18T14:04:20.277Z,83.10
2019-05-18T14:06:23.072Z,83.90
2019-05-18T14:08:25.866Z,83.00
2019-05-18T14:10:28.691Z,81.50
2019-05-18T14:12:31.615Z,82.70
2019-05-18T14:14:34.454Z,80.40
2019-05-18T14:16:37.289Z,80.00
2019-05-18T14:18:40.066Z,78.10
2019-05-18T14:20:42.859Z,78.80
2019-05-18T14:22:45.772Z,77.80
2019-05-18T14:24:48.549Z,75.30
2019-05-18T14:26:51.374Z,76.60
2019-05-18T14:28:54.178Z,76.10
2019-05-18T14:30:56.957Z,74.00
2019-05-18T14:32:59.850Z,72.90
2019-05-18T14:35:02.657Z,71.00
2019-05-18T14:37:05.438Z,72.20
2019-05-18T14:39:08.326Z,70.50
2019-05-18T14:41:11.185Z,71.70
2019-05-18T14:43:14.009Z,69.30
2019-05-18T14:45:16.995Z,68.70
2019-05-18T14:47:19.924Z,67.70
2019-05-18T14:49:22.710Z,63.70
2019-05-18T14:51:25.570Z,65.10
2019-05-18T14:53:28.388Z,65.40
2019-05-18T14:55:33.835Z,65.20
2019-05-18T14:57:35.659Z,61.40
2019-05-18T14:59:38.436Z,62.80
2019-05-18T15:01:41.287Z,61.80
2019-05-18T15:03:44.160Z,60.30
2019-05-18T15:05:46.984Z,59.20
2019-05-18T15:07:49.783Z,59.10
2019-05-18T15:09:52.614Z,57.80
2019-05-18T15:11:55.432Z,56.60
2019-05-18T15:13:58.219Z,57.00
2019-05-18T15:16:01.045Z,55.00
2019-05-18T15:18:04.036Z,54.10
2019-05-18T15:20:08.517Z,54.10
2019-05-18T15:22:11.406Z,52.40
2019-05-18T15:24:14.201Z,53.00
2019-05-18T15:26:17.039Z,52.70
2019-05-18T15:28:19.906Z,51.20
2019-05-18T15:30:22.989Z,49.80
2019-05-18T15:32:25.789Z,49.90
2019-05-18T15:34:28.598Z,50.20
2019-05-18T15:36:31.412Z,49.10
2019-05-18T15:38:34.219Z,49.00
2019-05-18T15:40:37.029Z,49.50
2019-05-18T15:42:39.846Z,49.90
2019-05-18T15:44:42.645Z,50.00
2019-05-18T15:46:45.500Z,50.20
2019-05-18T15:48:48.315Z,49.10
2019-05-18T15:50:51.084Z,49.60
2019-05-18T15:52:53.973Z,49.20
2019-05-18T15:54:56.796Z,50.10
2019-05-18T15:56:59.606Z,49.20
2019-05-18T15:59:02.413Z,51.20
2019-05-18T16:01:05.213Z,49.70
2019-05-18T16:03:08.124Z,51.60
2019-05-18T16:05:11.181Z,50.00
2019-05-18T16:07:14.060Z,48.20
2019-05-18T16:09:16.879Z,48.70
2019-05-18T16:11:19.672Z,46.80
2019-05-18T16:13:22.495Z,46.60
2019-05-18T16:15:25.404Z,45.70
2019-05-18T16:17:38.859Z,45.50
2019-05-18T16:19:32.628Z,45.40
2019-05-18T16:21:35.504Z,44.60
2019-05-18T16:23:38.307Z,45.40
2019-05-18T16:25:41.105Z,45.20
2019-05-18T16:27:43.916Z,45.00
2019-05-18T16:29:46.708Z,45.70
2019-05-18T16:31:49.531Z,45.10
2019-05-18T16:33:52.337Z,44.90
2019-05-18T16:35:55.144Z,43.70
2019-05-18T16:37:57.921Z,42.80
2019-05-18T16:40:00.747Z,42.60
2019-05-18T16:42:03.606Z,41.80
2019-05-18T16:44:06.486Z,41.80
2019-05-18T16:46:09.273Z,42.10
2019-05-18T16:48:12.169Z,42.20
2019-05-18T16:50:16.529Z,42.60
2019-05-18T16:52:19.318Z,44.00
2019-05-18T16:54:22.109Z,43.90
2019-05-18T16:56:34.813Z,44.90
2019-05-18T16:58:29.393Z,44.20
2019-05-18T17:00:32.188Z,45.90
2019-05-18T17:02:35.083Z,46.60
2019-05-18T17:04:37.870Z,47.10
2019-05-18T17:06:40.708Z,47.30
2019-05-18T17:08:43.576Z,48.60
2019-05-18T17:10:46.381Z,49.30
2019-05-18T17:12:49.247Z,50.20
2019-05-18T17:14:52.036Z,52.10
2019-05-18T17:16:54.944Z,52.70
2019-05-18T17:18:57.745Z,55.40
2019-05-18T17:21:00.561Z,55.90
2019-05-18T17:23:03.396Z,56.80
2019-05-18T17:25:06.454Z,58.70
2019-05-18T17:27:09.245Z,61.30
2019-05-18T17:29:12.138Z,62.20
2019-05-18T17:31:15.057Z,63.40
2019-05-18T17:33:17.846Z,65.60
2019-05-18T17:35:20.768Z,66.60
2019-05-18T17:37:23.505Z,67.20
2019-05-18T17:39:26.332Z,69.50
2019-05-18T17:41:29.160Z,69.20
2019-05-18T17:43:32.118Z,69.80
2019-05-18T17:45:34.887Z,69.70
2019-05-18T17:47:37.655Z,71.00
2019-05-18T17:49:40.468Z,72.20
2019-05-18T17:51:43.280Z,72.50
2019-05-18T17:53:46.138Z,73.40
2019-05-18T17:55:48.971Z,73.70
2019-05-18T17:57:51.845Z,76.00
2019-05-18T17:59:54.648Z,76.40
2019-05-18T18:01:57.444Z,77.60
2019-05-18T18:04:00.235Z,79.90
2019-05-18T18:06:03.059Z,82.60
2019-05-18T18:08:06.053Z,82.70
2019-05-18T18:10:09.109Z,85.10
2019-05-18T18:12:12.057Z,87.70
2019-05-18T18:14:14.841Z,88.90
2019-05-18T18:16:17.717Z,90.00
2019-05-18T18:18:20.519Z,89.10
2019-05-18T18:20:23.308Z,90.70
2019-05-18T18:22:26.100Z,90.90
2019-05-18T18:24:28.937Z,91.60
2019-05-18T18:26:31.741Z,91.60
2019-05-18T18:28:34.653Z,91.90
2019-05-18T18:30:37.521Z,92.80
2019-05-18T18:32:40.474Z,93.50
2019-05-18T18:34:43.269Z,94.40
2019-05-18T18:36:46.170Z,94.90
2019-05-18T18:38:49.043Z,95.40
2019-05-18T18:40:51.860Z,96.00
2019-05-18T18:42:54.768Z,96.50
2019-05-18T18:44:57.596Z,97.00
2019-05-18T18:47:00.409Z,97.40
2019-05-18T18:49:03.170Z,97.50
2019-05-18T18:51:05.997Z,97.20
2019-05-18T18:53:08.851Z,97.30
2019-05-18T18:55:13.682Z,97.30
2019-05-18T18:57:16.239Z,98.20
2019-05-18T18:59:19.079Z,98.80
2019-05-18T19:01:21.925Z,99.20
2019-05-18T19:03:24.717Z,99.50
2019-05-18T19:05:27.621Z,99.40
2019-05-18T19:07:30.449Z,99.60
2019-05-18T19:09:33.252Z,99.80
2019-05-18T19:11:36.108Z,99.70
2019-05-18T19:13:38.964Z,99.80
2019-05-18T19:15:41.817Z,99.80
2019-05-18T19:17:44.672Z,99.80
2019-05-18T19:19:47.556Z,99.70
2019-05-18T19:21:50.413Z,99.90
2019-05-18T19:23:53.265Z,99.90
2019-05-18T19:25:56.022Z,99.90
2019-05-18T19:27:58.818Z,99.90
2019-05-18T19:30:01.684Z,99.90
2019-05-18T19:32:04.506Z,99.90
2019-05-18T19:34:07.300Z,99.90
2019-05-18T19:36:10.092Z,99.90
2019-05-18T19:38:12.986Z,99.90
2019-05-18T19:40:15.878Z,99.90
2019-05-18T19:42:18.669Z,99.90
2019-05-18T19:44:24.051Z,99.90
2019-05-18T19:46:26.918Z,99.90
2019-05-18T19:48:29.758Z,99.90
2019-05-18T19:50:32.552Z,99.90
2019-05-18T19:52:35.440Z,99.90
2019-05-18T19:54:38.236Z,99.90
2019-05-18T19:56:42.630Z,99.90
2019-05-18T19:58:45.564Z,99.90
2019-05-18T20:00:48.443Z,99.90
2019-05-18T20:02:51.212Z,99.90
2019-05-18T20:05:06.338Z,99.90
2019-05-18T20:06:58.474Z,99.90
2019-05-18T20:09:01.295Z,99.90
2019-05-18T20:11:04.149Z,99.90
2019-05-18T20:13:06.974Z,99.90
2019-05-18T20:15:10.151Z,99.90
2019-05-18T20:17:13.031Z,99.90
2019-05-18T20:19:15.826Z,99.90
2019-05-18T20:21:18.630Z,99.90
2019-05-18T20:23:21.459Z,99.90
2019-05-18T20:25:24.257Z,99.90
2019-05-18T20:27:27.120Z,99.90
2019-05-18T20:29:29.917Z,99.90
2019-05-18T20:31:32.716Z,99.90
2019-05-18T20:33:35.529Z,99.90
2019-05-18T20:35:38.358Z,99.90
2019-05-18T20:37:41.165Z,99.90
2019-05-18T20:39:43.991Z,99.90
2019-05-18T20:41:46.777Z,99.90
2019-05-18T20:43:49.578Z,99.90
2019-05-18T20:45:52.369Z,99.90
2019-05-18T20:47:55.176Z,99.90
2019-05-18T20:49:57.968Z,99.90
2019-05-18T20:52:00.757Z,99.90
2019-05-18T20:54:03.664Z,99.90
2019-05-18T20:56:06.479Z,99.90
2019-05-18T20:58:09.344Z,99.90
2019-05-18T21:00:12.238Z,99.90
2019-05-18T21:02:15.039Z,99.90
2019-05-18T21:04:17.825Z,99.90
2019-05-18T21:06:20.901Z,99.90
2019-05-18T21:08:23.689Z,99.90
2019-05-18T21:10:26.504Z,99.90
2019-05-18T21:12:29.315Z,99.90
2019-05-18T21:14:32.106Z,99.90
2019-05-18T21:16:34.906Z,99.90
2019-05-18T21:18:37.693Z,99.90
2019-05-18T21:20:40.504Z,99.90
2019-05-18T21:22:43.320Z,99.90
2019-05-18T21:24:46.128Z,99.90
2019-05-18T21:26:48.917Z,99.90
2019-05-18T21:28:57.591Z,99.90
2019-05-18T21:30:56.181Z,99.90
2019-05-18T21:32:59.011Z,99.90
2019-05-18T21:35:01.940Z,99.90
2019-05-18T21:37:05.123Z,99.90
2019-05-18T21:39:07.912Z,99.90
2019-05-18T21:41:10.770Z,99.90
2019-05-18T21:43:13.578Z,99.90
2019-05-18T21:45:16.664Z,99.90
2019-05-18T21:47:19.469Z,99.90
2019-05-18T21:49:22.265Z,99.90
2019-05-18T21:51:25.052Z,99.90
2019-05-18T21:53:27.878Z,99.90
2019-05-18T21:55:30.760Z,99.90
2019-05-18T21:57:33.568Z,99.90
2019-05-18T21:59:36.368Z,99.90
2019-05-18T22:01:39.188Z,99.90
2019-05-18T22:05:44.065Z,99.90
2019-05-18T22:07:46.869Z,99.90
2019-05-18T22:09:53.467Z,99.90
2019-05-18T22:11:54.405Z,99.90
2019-05-18T22:13:57.200Z,99.90
2019-05-18T22:16:00.005Z,99.90
2019-05-18T22:18:02.809Z,99.90
2019-05-18T22:20:05.785Z,99.90
2019-05-18T22:22:08.566Z,99.90
2019-05-18T22:24:11.393Z,99.90
2019-05-18T22:26:16.358Z,99.90
2019-05-18T22:28:19.182Z,99.90
2019-05-18T22:30:21.980Z,99.90
2019-05-18T22:32:24.857Z,99.90
2019-05-18T22:34:27.650Z,99.90
2019-05-18T22:36:30.451Z,99.90
2019-05-18T22:38:33.267Z,99.90
2019-05-18T22:40:36.139Z,99.90
2019-05-18T22:42:38.993Z,99.90
2019-05-18T22:44:41.891Z,99.90
2019-05-18T22:46:44.603Z,99.90
2019-05-18T22:48:47.429Z,99.90
2019-05-18T22:50:50.232Z,99.90
2019-05-18T22:52:53.061Z,99.90
2019-05-18T22:54:55.831Z,99.90
2019-05-18T22:56:58.615Z,99.90
2019-05-18T22:59:01.522Z,99.90
2019-05-18T23:01:04.317Z,99.90
2019-05-18T23:03:07.198Z,99.90
2019-05-18T23:05:10.157Z,99.90
2019-05-18T23:07:12.962Z,99.90
2019-05-18T23:09:15.768Z,99.90
2019-05-18T23:11:18.653Z,99.90
2019-05-18T23:13:21.447Z,99.90
2019-05-18T23:15:24.253Z,99.90
2019-05-18T23:17:27.037Z,99.90
2019-05-18T23:19:29.860Z,99.90
2019-05-18T23:21:32.645Z,99.90
2019-05-18T23:23:35.438Z,99.90
2019-05-18T23:25:38.246Z,99.90
2019-05-18T23:27:41.100Z,99.90
2019-05-18T23:29:43.927Z,99.90
2019-05-18T23:31:46.785Z,99.90
2019-05-18T23:33:49.620Z,99.90
2019-05-18T23:35:52.437Z,99.90
2019-05-18T23:37:55.220Z,99.90
2019-05-18T23:39:58.032Z,99.90
2019-05-18T23:42:00.830Z,99.90
2019-05-18T23:44:03.917Z,99.90
2019-05-18T23:46:06.769Z,99.90
2019-05-18T23:48:09.556Z,99.90
2019-05-18T23:50:12.632Z,99.90
2019-05-18T23:52:15.440Z,99.90
2019-05-18T23:54:18.303Z,99.90
2019-05-18T23:56:21.107Z,99.90
2019-05-18T23:58:23.878Z,99.90
